Time;durP1;ratioP1;P1;durP2;ratioP2;P2;SDS_P1;SDS_P2;PMS_P1;PMS_P2;Temp;Humidity;BMP_temperature;BMP_pressure;BME280_temperature;BME280_humidity;BME280_pressure;Samples;Min_cycle;Max_cycle;Signal;HPM_P1;HPM_P2
2021/06/04 00:00:27;;;;;;;25.15;22.75;;;18.90;99.90;;;;;;5029147;28;20076;-84
2021/06/04 00:02:54;;;;;;;25.48;22.95;;;18.70;99.90;;;;;;5035430;28;20034;-84
2021/06/04 00:05:23;;;;;;;27.67;24.90;;;18.70;99.90;;;;;;5051320;28;20045;-84
2021/06/04 00:07:49;;;;;;;29.60;26.00;;;18.80;99.90;;;;;;5036860;28;20071;-84
2021/06/04 00:10:29;;;;;;;26.65;24.20;;;18.60;99.90;;;;;;5055244;28;20482;-84
2021/06/04 00:13:16;;;;;;;26.70;24.27;;;19.10;99.90;;;;;;5054326;28;20040;-84
2021/06/04 00:15:42;;;;;;;25.75;23.15;;;18.60;99.90;;;;;;5054543;28;20025;-84
2021/06/04 00:18:08;;;;;;;26.05;23.50;;;18.60;99.90;;;;;;5054138;28;20033;-84
2021/06/04 00:20:34;;;;;;;29.30;24.83;;;18.90;99.90;;;;;;5054228;28;20117;-85
2021/06/04 00:23:00;;;;;;;26.48;23.58;;;18.70;99.90;;;;;;5037053;28;20054;-85
2021/06/04 00:25:25;;;;;;;25.98;23.50;;;18.60;99.90;;;;;;5021746;28;20049;-84
2021/06/04 00:27:51;;;;;;;28.73;24.15;;;18.40;99.90;;;;;;5056664;28;20061;-85
2021/06/04 00:30:18;;;;;;;30.33;27.13;;;18.30;99.90;;;;;;5056939;28;20044;-85
2021/06/04 00:32:44;;;;;;;33.08;29.48;;;18.40;99.90;;;;;;5037856;28;20041;-85
2021/06/04 00:35:11;;;;;;;29.42;26.33;;;18.30;99.90;;;;;;5052372;28;20029;-84
2021/06/04 00:37:38;;;;;;;31.88;28.58;;;18.40;99.90;;;;;;5038284;28;20090;-84
2021/06/04 00:40:21;;;;;;;30.27;27.00;;;18.40;99.90;;;;;;5051098;28;20036;-84
2021/06/04 00:42:47;;;;;;;27.95;25.10;;;18.30;99.90;;;;;;5038812;28;20060;-85
2021/06/04 00:45:20;;;;;;;35.38;29.40;;;18.20;99.90;;;;;;5049922;28;20044;-85
2021/06/04 00:47:47;;;;;;;33.03;29.50;;;18.30;99.90;;;;;;5048732;28;20037;-85
2021/06/04 00:50:22;;;;;;;34.08;30.48;;;18.20;99.90;;;;;;5049068;28;20037;-85
2021/06/04 00:52:48;;;;;;;32.53;28.98;;;18.20;99.90;;;;;;5036123;28;20040;-85
2021/06/04 00:55:19;;;;;;;41.85;31.02;;;18.20;99.90;;;;;;5054027;28;20033;-85
2021/06/04 00:57:46;;;;;;;32.40;29.02;;;18.40;99.90;;;;;;5052555;28;20082;-85
2021/06/04 01:00:24;;;;;;;29.15;25.92;;;18.20;99.90;;;;;;5053507;28;20403;-85
2021/06/04 01:02:51;;;;;;;30.30;27.08;;;18.20;99.90;;;;;;5060422;28;20033;-84
2021/06/04 01:05:18;;;;;;;35.50;31.23;;;18.20;99.90;;;;;;5041231;28;20044;-84
2021/06/04 01:07:56;;;;;;;31.63;28.40;;;18.20;99.90;;;;;;5058159;28;20059;-85
2021/06/04 01:10:32;;;;;;;37.25;32.15;;;18.20;99.90;;;;;;5052794;28;20137;-84
2021/06/04 01:13:01;;;;;;;32.90;28.80;;;18.20;99.90;;;;;;5039990;28;20044;-84
2021/06/04 01:16:20;;;;;;;40.50;33.63;;;18.20;99.90;;;;;;5056349;28;20040;-84
2021/06/04 01:19:20;;;;;;;36.72;32.50;;;18.10;99.90;;;;;;5023208;28;20053;-84
2021/06/04 01:21:55;;;;;;;35.72;30.88;;;18.10;99.90;;;;;;5059143;28;20040;-84
2021/06/04 01:24:33;;;;;;;37.22;32.22;;;18.10;99.90;;;;;;5074960;28;20045;-84
2021/06/04 01:27:03;;;;;;;39.10;33.85;;;18.10;99.90;;;;;;5038487;28;20037;-84
2021/06/04 01:29:33;;;;;;;34.53;30.63;;;18.10;99.90;;;;;;5039836;28;20104;-84
2021/06/04 01:32:07;;;;;;;36.42;32.72;;;18.10;99.90;;;;;;5055676;28;20050;-85
2021/06/04 01:34:37;;;;;;;37.78;32.38;;;18.00;99.90;;;;;;5056479;28;20546;-85
2021/06/04 01:37:07;;;;;;;40.08;34.15;;;18.10;99.90;;;;;;5033115;28;20123;-85
2021/06/04 01:39:41;;;;;;;35.28;30.63;;;17.90;99.90;;;;;;5049788;28;20033;-85
2021/06/04 01:42:11;;;;;;;46.00;36.35;;;18.50;99.90;;;;;;5054125;28;20585;-85
2021/06/04 01:44:47;;;;;;;46.17;38.17;;;18.00;99.90;;;;;;5054815;28;20040;-84
2021/06/04 01:47:17;;;;;;;37.83;32.90;;;18.00;99.90;;;;;;5062702;28;20055;-85
2021/06/04 01:49:48;;;;;;;39.92;34.75;;;17.90;99.90;;;;;;5064781;28;20040;-85
2021/06/04 01:52:23;;;;;;;38.13;34.05;;;17.90;99.90;;;;;;5059049;28;20059;-85
2021/06/04 01:55:08;;;;;;;46.10;36.58;;;18.50;99.90;;;;;;5036518;28;20049;-85
2021/06/04 01:58:09;;;;;;;38.58;33.78;;;17.90;99.90;;;;;;5057916;28;20137;-84
2021/06/04 02:00:44;;;;;;;39.75;35.00;;;17.90;99.90;;;;;;5056854;28;20057;-84
2021/06/04 02:03:14;;;;;;;42.67;36.10;;;17.90;99.90;;;;;;5056384;28;20060;-84
2021/06/04 02:05:42;;;;;;;45.13;37.95;;;17.70;99.90;;;;;;5059698;28;20036;-84
2021/06/04 02:08:12;;;;;;;46.60;37.28;;;17.90;99.90;;;;;;5075536;28;20091;-84
2021/06/04 02:10:49;;;;;;;37.33;32.72;;;18.00;99.90;;;;;;5063035;28;20041;-84
2021/06/04 02:13:15;;;;;;;35.42;30.95;;;18.30;99.90;;;;;;5043401;28;20044;-85
2021/06/04 02:15:47;;;;;;;31.88;28.55;;;17.90;99.90;;;;;;5059131;28;20033;-84
2021/06/04 02:18:42;;;;;;;33.67;30.05;;;18.00;99.90;;;;;;5039506;28;20037;-84
2021/06/04 02:21:20;;;;;;;36.42;32.45;;;17.80;99.90;;;;;;5046833;28;20056;-84
2021/06/04 02:24:08;;;;;;;40.08;35.78;;;17.80;99.90;;;;;;5047803;28;20487;-85
2021/06/04 02:26:40;;;;;;;43.33;35.20;;;17.70;99.90;;;;;;5074631;28;20036;-84
2021/06/04 02:29:46;;;;;;;40.85;36.35;;;17.70;99.90;;;;;;5061458;28;20029;-84
2021/06/04 02:32:24;;;;;;;37.28;32.80;;;17.70;99.90;;;;;;4945638;29;20051;-84
2021/06/04 02:34:58;;;;;;;38.60;34.40;;;17.70;99.90;;;;;;5049082;28;20055;-85
2021/06/04 02:37:39;;;;;;;38.97;34.65;;;17.90;99.90;;;;;;5043281;28;20041;-85
2021/06/04 02:40:34;;;;;;;34.33;30.45;;;17.90;99.90;;;;;;5057023;28;20040;-85
2021/06/04 02:43:03;;;;;;;36.10;32.28;;;17.60;99.90;;;;;;5041278;28;20468;-85
2021/06/04 02:45:37;;;;;;;36.13;32.47;;;17.90;99.90;;;;;;5054352;28;20096;-85
2021/06/04 02:48:15;;;;;;;36.30;32.45;;;17.60;99.90;;;;;;5038871;28;20045;-84
2021/06/04 02:50:48;;;;;;;40.25;34.65;;;17.60;99.90;;;;;;5052231;28;20140;-84
2021/06/04 02:53:29;;;;;;;39.40;35.10;;;18.00;99.90;;;;;;5053936;28;20762;-84
2021/06/04 02:56:10;;;;;;;42.47;36.28;;;17.60;99.90;;;;;;5037430;28;20055;-84
2021/06/04 02:58:37;;;;;;;38.55;34.45;;;17.60;99.90;;;;;;5054649;28;20040;-84
2021/06/04 03:01:05;;;;;;;48.45;39.45;;;17.60;99.90;;;;;;5038142;28;20044;-85
2021/06/04 03:03:31;;;;;;;53.55;43.75;;;18.00;99.90;;;;;;5054055;28;20071;-85
2021/06/04 03:05:56;;;;;;;46.25;39.20;;;17.50;99.90;;;;;;5039876;28;20037;-85
2021/06/04 03:08:24;;;;;;;44.58;38.63;;;17.60;99.90;;;;;;5039651;28;20037;-85
2021/06/04 03:10:51;;;;;;;42.35;37.83;;;17.50;99.90;;;;;;5060511;28;20032;-85
2021/06/04 03:13:23;;;;;;;38.10;34.00;;;17.50;99.90;;;;;;5061071;28;21641;-85
2021/06/04 03:15:52;;;;;;;37.15;33.33;;;17.70;99.90;;;;;;5060986;28;20037;-85
2021/06/04 03:18:26;;;;;;;36.50;32.72;;;17.40;99.90;;;;;;5058112;28;20040;-85
2021/06/04 03:20:52;;;;;;;40.97;33.65;;;17.60;99.90;;;;;;5052936;28;20040;-85
2021/06/04 03:23:22;;;;;;;38.15;34.03;;;17.60;99.90;;;;;;5038065;28;20033;-85
2021/06/04 03:25:51;;;;;;;37.33;33.25;;;17.50;99.90;;;;;;5055016;28;20092;-85
2021/06/04 03:28:19;;;;;;;44.70;38.13;;;17.50;99.90;;;;;;5058728;28;20037;-85
2021/06/04 03:30:47;;;;;;;41.72;37.22;;;17.50;99.90;;;;;;5040028;28;20052;-85
2021/06/04 03:33:17;;;;;;;28.90;25.90;;;17.50;99.90;;;;;;5058193;28;20037;-85
2021/06/04 03:35:43;;;;;;;40.38;36.17;;;17.50;99.90;;;;;;5057416;28;20104;-85
2021/06/04 03:38:10;;;;;;;35.60;31.85;;;17.50;99.90;;;;;;5057872;28;20085;-85
2021/06/04 03:40:37;;;;;;;39.88;35.53;;;17.50;99.90;;;;;;5041792;28;20033;-85
2021/06/04 03:43:07;;;;;;;38.22;34.17;;;17.60;99.90;;;;;;5060501;28;20029;-85
2021/06/04 03:45:36;;;;;;;32.47;29.17;;;17.40;99.90;;;;;;5057556;28;20037;-85
2021/06/04 03:48:02;;;;;;;34.58;31.17;;;17.50;99.90;;;;;;5044703;28;20037;-85
2021/06/04 03:50:28;;;;;;;28.85;26.05;;;17.50;99.90;;;;;;5043178;28;20067;-85
2021/06/04 03:52:54;;;;;;;33.17;29.80;;;17.50;99.90;;;;;;5040985;28;20098;-85
2021/06/04 03:55:25;;;;;;;33.40;29.95;;;17.40;99.90;;;;;;5063574;28;20041;-85
2021/06/04 03:57:52;;;;;;;39.35;35.15;;;17.80;99.90;;;;;;5044153;28;20033;-85
2021/06/04 04:00:24;;;;;;;35.03;29.45;;;17.30;99.90;;;;;;5065547;28;20147;-85
2021/06/04 04:02:50;;;;;;;37.10;33.30;;;17.30;99.90;;;;;;5063621;28;20041;-85
2021/06/04 04:05:24;;;;;;;37.70;32.90;;;17.20;99.90;;;;;;5057710;28;20033;-85
2021/06/04 04:07:52;;;;;;;38.60;34.47;;;17.20;99.90;;;;;;5041994;28;20040;-85
2021/06/04 04:10:21;;;;;;;39.08;34.88;;;17.70;99.90;;;;;;5056514;28;20045;-85
2021/06/04 04:12:49;;;;;;;31.95;28.95;;;17.20;99.90;;;;;;5064299;28;20121;-85
2021/06/04 04:15:19;;;;;;;33.97;30.58;;;17.20;99.90;;;;;;5060055;28;20478;-85
2021/06/04 04:17:47;;;;;;;35.67;31.90;;;17.10;99.90;;;;;;5063252;28;20036;-84
2021/06/04 04:20:21;;;;;;;40.95;35.95;;;17.20;99.90;;;;;;5045240;28;20704;-84
2021/06/04 04:22:47;;;;;;;38.95;34.83;;;17.30;99.90;;;;;;5043964;28;20047;-85
2021/06/04 04:25:14;;;;;;;38.55;34.50;;;17.50;99.90;;;;;;5066015;28;20021;-85
2021/06/04 04:27:40;;;;;;;32.08;27.05;;;17.20;99.90;;;;;;5050822;28;20045;-85
2021/06/04 04:30:10;;;;;;;34.85;31.30;;;17.20;99.90;;;;;;5045230;28;20017;-85
2021/06/04 04:32:37;;;;;;;28.80;25.88;;;17.20;99.90;;;;;;5062800;28;20041;-84
2021/06/04 04:35:04;;;;;;;25.10;22.70;;;17.20;99.90;;;;;;5067083;28;20462;-85
2021/06/04 04:37:30;;;;;;;36.50;32.38;;;17.20;99.90;;;;;;5066729;28;20048;-85
2021/06/04 04:39:56;;;;;;;32.55;29.17;;;17.60;99.90;;;;;;5058632;28;20041;-84
2021/06/04 04:42:22;;;;;;;32.63;29.25;;;17.30;99.90;;;;;;5055562;28;20032;-86
2021/06/04 04:44:48;;;;;;;33.85;30.40;;;17.30;99.90;;;;;;5039739;28;20466;-84
2021/06/04 04:47:17;;;;;;;36.53;32.67;;;17.40;99.90;;;;;;5058695;28;20037;-84
2021/06/04 04:49:44;;;;;;;38.08;34.17;;;17.60;99.90;;;;;;5064398;28;20055;-84
2021/06/04 04:52:13;;;;;;;44.47;38.83;;;17.90;99.90;;;;;;5044840;28;20065;-85
2021/06/04 04:54:49;;;;;;;41.20;37.08;;;18.00;99.90;;;;;;5051697;28;20041;-86
2021/06/04 04:57:16;;;;;;;41.53;37.22;;;18.30;99.90;;;;;;5048676;28;20040;-85
2021/06/04 04:59:41;;;;;;;44.38;39.50;;;18.40;99.90;;;;;;5032959;28;20091;-86
2021/06/04 05:02:08;;;;;;;41.85;37.38;;;18.60;99.90;;;;;;5048552;28;20063;-86
2021/06/04 05:04:34;;;;;;;36.45;32.72;;;18.90;99.90;;;;;;5046539;28;20115;-85
2021/06/04 05:07:02;;;;;;;36.47;32.67;;;18.90;99.90;;;;;;5049326;28;20037;-86
2021/06/04 05:09:28;;;;;;;41.13;33.63;;;18.90;99.90;;;;;;5030310;28;20040;-86
2021/06/04 05:11:54;;;;;;;38.00;33.67;;;18.90;99.90;;;;;;5056534;28;20045;-85
2021/06/04 05:14:19;;;;;;;36.65;32.45;;;19.30;99.90;;;;;;5049446;28;20044;-85
2021/06/04 05:16:45;;;;;;;38.05;33.85;;;19.00;99.90;;;;;;5029923;28;20072;-87
2021/06/04 05:19:11;;;;;;;37.65;33.58;;;19.00;99.90;;;;;;5050026;28;20486;-85
2021/06/04 05:21:37;;;;;;;41.08;33.67;;;18.80;99.90;;;;;;5051935;28;20086;-85
2021/06/04 05:24:05;;;;;;;36.08;32.13;;;18.70;99.90;;;;;;5033560;28;20029;-85
2021/06/04 05:26:33;;;;;;;35.20;31.77;;;18.80;99.90;;;;;;5050724;28;20043;-86
2021/06/04 05:28:58;;;;;;;37.50;31.92;;;18.80;99.90;;;;;;5032660;28;21763;-87
2021/06/04 05:31:25;;;;;;;44.67;31.52;;;18.90;99.90;;;;;;5046568;28;20035;-86
2021/06/04 05:33:53;;;;;;;36.72;32.90;;;19.40;99.90;;;;;;5047182;28;20570;-86
2021/06/04 05:36:24;;;;;;;36.90;32.38;;;19.50;99.90;;;;;;5047293;28;20037;-85
2021/06/04 05:38:49;;;;;;;40.42;36.13;;;19.90;99.90;;;;;;5049661;28;20494;-85
2021/06/04 05:41:17;;;;;;;35.72;31.85;;;20.00;99.90;;;;;;5047141;28;20045;-85
2021/06/04 05:43:45;;;;;;;42.08;34.80;;;20.60;99.90;;;;;;5029596;28;20364;-84
2021/06/04 05:46:13;;;;;;;38.33;34.33;;;20.50;99.90;;;;;;5043006;28;20037;-83
2021/06/04 05:52:41;;;;;;;44.30;37.95;;;21.00;99.80;;;;;;5039131;28;20048;-85
2021/06/04 06:33:39;;;;;;;35.65;30.58;;;23.60;93.20;;;;;;4925868;28;20569;-85
2021/06/04 06:37:13;;;;;;;40.20;31.27;;;23.60;93.00;;;;;;4891937;29;20646;-85
2021/06/04 06:40:39;;;;;;;32.13;27.38;;;23.70;92.40;;;;;;4875161;29;20095;-86
2021/06/04 07:13:33;;;;;;;31.90;25.05;;;24.50;90.60;;;;;;4865719;29;20064;-85
2021/06/04 07:16:57;;;;;;;30.35;25.58;;;24.30;91.60;;;;;;4895740;29;20652;-85
2021/06/04 07:19:28;;;;;;;32.22;25.30;;;24.60;91.10;;;;;;4899726;29;20528;-85
2021/06/04 07:21:54;;;;;;;29.25;24.52;;;24.70;91.10;;;;;;4957931;28;20276;-84
2021/06/04 07:24:23;;;;;;;27.83;24.75;;;24.90;90.90;;;;;;5026454;28;20038;-84
2021/06/04 07:26:53;;;;;;;30.85;24.38;;;24.70;90.90;;;;;;5060745;28;20115;-85
2021/06/04 07:29:20;;;;;;;29.42;26.15;;;24.60;91.10;;;;;;5032185;28;20148;-84
2021/06/04 07:31:49;;;;;;;27.13;23.85;;;24.90;90.90;;;;;;5031433;28;20127;-85
2021/06/04 07:34:15;;;;;;;31.88;26.65;;;24.70;90.00;;;;;;5045725;28;20669;-84
2021/06/04 07:36:45;;;;;;;27.02;24.17;;;25.00;88.50;;;;;;5033559;28;20033;-84
2021/06/04 07:39:15;;;;;;;28.10;24.77;;;25.10;90.10;;;;;;5048668;28;20060;-85
2021/06/04 07:41:41;;;;;;;29.95;25.30;;;25.20;88.10;;;;;;5046270;28;20060;-84
2021/06/04 07:44:08;;;;;;;27.35;24.65;;;25.40;88.30;;;;;;5030691;28;20040;-84
2021/06/04 07:46:34;;;;;;;28.33;25.40;;;25.50;89.30;;;;;;5050036;28;20120;-84
2021/06/04 07:49:00;;;;;;;33.05;24.27;;;25.50;88.00;;;;;;5048084;28;20143;-85
2021/06/04 07:51:34;;;;;;;28.85;22.70;;;25.50;87.30;;;;;;5048230;28;20059;-84
2021/06/04 07:54:00;;;;;;;34.80;23.92;;;25.80;86.90;;;;;;5034593;28;20057;-84
2021/06/04 07:56:27;;;;;;;28.65;24.35;;;25.40;86.70;;;;;;5033674;28;20055;-85
2021/06/04 07:58:53;;;;;;;28.10;25.27;;;25.40;86.60;;;;;;5033181;28;20072;-84
2021/06/04 08:01:19;;;;;;;29.83;25.88;;;25.20;87.00;;;;;;5048672;28;20060;-85
2021/06/04 08:03:45;;;;;;;28.38;24.35;;;25.20;86.70;;;;;;5032681;28;20469;-85
2021/06/04 08:06:14;;;;;;;28.98;25.67;;;25.20;87.00;;;;;;5031669;28;20560;-84
2021/06/04 08:08:42;;;;;;;29.90;26.10;;;25.50;88.10;;;;;;5048704;28;20037;-85
2021/06/04 08:11:18;;;;;;;28.90;25.85;;;25.40;87.50;;;;;;5048399;28;20602;-85
2021/06/04 08:13:46;;;;;;;25.83;23.25;;;25.50;85.90;;;;;;5030902;28;20401;-85
2021/06/04 08:16:12;;;;;;;28.73;24.40;;;25.40;84.90;;;;;;5028729;28;20025;-85
2021/06/04 08:18:39;;;;;;;28.80;24.08;;;25.50;85.60;;;;;;5032159;28;20044;-84
2021/06/04 08:21:14;;;;;;;25.10;22.45;;;25.50;85.80;;;;;;5050291;28;20044;-85
2021/06/04 08:23:43;;;;;;;25.42;22.67;;;25.60;85.70;;;;;;5048677;28;20040;-84
2021/06/04 08:26:13;;;;;;;25.40;22.85;;;25.70;86.90;;;;;;5050000;28;20029;-84
2021/06/04 08:28:40;;;;;;;25.20;22.50;;;25.50;87.90;;;;;;5050642;28;20044;-85
2021/06/04 08:31:07;;;;;;;28.55;21.88;;;25.60;89.10;;;;;;5063923;28;20045;-84
2021/06/04 08:33:41;;;;;;;29.40;23.85;;;25.40;87.80;;;;;;5034277;28;20037;-85
2021/06/04 08:36:11;;;;;;;26.35;23.23;;;25.40;87.00;;;;;;5030701;28;20766;-84
2021/06/04 08:38:40;;;;;;;26.15;23.52;;;25.30;87.70;;;;;;5032095;28;20108;-85
2021/06/04 08:41:39;;;;;;;27.27;23.98;;;25.20;89.60;;;;;;5028080;28;20052;-85
2021/06/04 08:44:29;;;;;;;26.60;23.95;;;25.00;89.70;;;;;;5000555;28;20556;-84
2021/06/04 08:47:01;;;;;;;27.38;23.15;;;25.10;89.70;;;;;;5047418;28;20535;-84
2021/06/04 08:49:48;;;;;;;24.77;20.98;;;25.10;87.70;;;;;;5030526;28;20037;-84
2021/06/04 08:52:20;;;;;;;28.98;23.08;;;25.40;87.70;;;;;;5027757;28;20091;-85
2021/06/04 08:55:02;;;;;;;24.83;22.33;;;25.50;88.60;;;;;;5048021;28;20035;-84
2021/06/04 08:57:39;;;;;;;28.70;20.95;;;25.80;88.50;;;;;;5030974;28;20097;-84
2021/06/04 09:00:18;;;;;;;23.15;20.25;;;26.10;85.70;;;;;;5033859;28;20402;-84
2021/06/04 09:02:51;;;;;;;21.15;18.98;;;26.30;86.40;;;;;;5048027;28;20033;-84
2021/06/04 09:05:34;;;;;;;19.80;17.80;;;26.40;84.50;;;;;;5031451;28;20171;-84
2021/06/04 09:08:00;;;;;;;19.20;17.25;;;26.40;81.70;;;;;;5045695;28;20487;-84
2021/06/04 09:10:52;;;;;;;18.02;13.63;;;26.30;80.40;;;;;;5032996;28;20036;-85
2021/06/04 09:13:25;;;;;;;18.05;15.10;;;26.40;79.80;;;;;;5025559;28;20451;-84
2021/06/04 09:15:59;;;;;;;20.60;14.20;;;26.40;80.50;;;;;;5051062;28;20040;-84
2021/06/04 09:22:21;;;;;;;19.85;13.35;;;26.50;82.20;;;;;;5048765;28;20123;-85
2021/06/04 09:25:38;;;;;;;13.43;11.55;;;27.00;82.20;;;;;;5013540;28;20056;-85
2021/06/04 09:28:21;;;;;;;14.27;10.38;;;27.20;81.90;;;;;;5036197;28;20069;-84
2021/06/04 09:30:58;;;;;;;13.45;11.43;;;27.30;78.10;;;;;;5032221;28;20086;-85
2021/06/04 09:33:33;;;;;;;13.60;10.63;;;27.20;77.90;;;;;;5064404;28;20065;-86
2021/06/04 09:36:21;;;;;;;18.02;13.98;;;27.50;76.30;;;;;;5030034;28;20272;-83
2021/06/04 09:38:54;;;;;;;12.50;10.38;;;27.50;72.00;;;;;;5064831;28;20100;-85
2021/06/04 09:41:34;;;;;;;17.67;11.90;;;27.60;74.50;;;;;;5064655;28;20440;-85
2021/06/04 09:44:14;;;;;;;14.88;12.52;;;27.70;76.20;;;;;;5048107;28;20045;-84
2021/06/04 09:46:48;;;;;;;17.80;13.93;;;27.80;77.20;;;;;;5053633;28;20767;-84
2021/06/04 09:49:31;;;;;;;20.58;15.32;;;27.90;76.90;;;;;;5034197;28;20037;-85
2021/06/04 09:52:18;;;;;;;14.35;11.85;;;28.10;75.10;;;;;;5049218;28;20044;-84
2021/06/04 09:54:44;;;;;;;15.52;11.82;;;28.30;74.60;;;;;;5049826;28;20064;-84
2021/06/04 09:57:13;;;;;;;12.50;10.32;;;28.40;72.00;;;;;;5049242;28;20059;-82
2021/06/04 09:59:39;;;;;;;11.63;10.40;;;28.30;73.40;;;;;;5043949;28;20033;-86
2021/06/04 10:02:28;;;;;;;9.43;8.40;;;28.40;70.10;;;;;;5043604;28;20043;-85
2021/06/04 10:05:21;;;;;;;11.10;9.63;;;28.50;70.00;;;;;;5046795;28;20033;-85
2021/06/04 10:07:59;;;;;;;8.85;7.88;;;28.70;67.40;;;;;;5044244;28;20043;-85
2021/06/04 10:10:33;;;;;;;9.48;7.25;;;28.80;59.40;;;;;;5032917;28;20092;-85
2021/06/04 10:13:36;;;;;;;13.48;7.95;;;28.40;61.40;;;;;;5011999;28;20103;-87
2021/06/04 10:16:09;;;;;;;9.77;5.30;;;28.30;62.80;;;;;;5044340;28;20029;-84
2021/06/04 10:18:39;;;;;;;6.07;4.85;;;28.50;61.70;;;;;;5042884;28;20045;-87
2021/06/04 10:21:14;;;;;;;6.50;5.57;;;28.60;57.70;;;;;;5028591;28;20037;-85
2021/06/04 10:23:42;;;;;;;9.35;7.18;;;28.60;61.70;;;;;;5053408;28;20037;-85
2021/06/04 10:26:31;;;;;;;9.35;7.32;;;28.80;62.40;;;;;;5026661;28;20112;-85
2021/06/04 10:29:03;;;;;;;13.07;9.73;;;28.60;65.50;;;;;;5049026;28;20113;-85
2021/06/04 10:31:50;;;;;;;11.38;8.63;;;29.00;62.80;;;;;;5030427;28;20050;-84
2021/06/04 10:34:25;;;;;;;8.77;7.90;;;29.10;63.70;;;;;;5027706;28;20060;-84
2021/06/04 10:36:57;;;;;;;;;;;29.10;64.20;;;;;;5046362;28;20123;-84
2021/06/04 10:39:35;;;;;;;9.77;8.88;;;29.10;63.60;;;;;;5044520;28;20047;-84
2021/06/04 10:42:22;;;;;;;12.52;7.93;;;29.20;61.50;;;;;;5049492;28;20076;-84
2021/06/04 10:45:28;;;;;;;9.07;8.18;;;29.10;64.20;;;;;;5043554;28;20041;-85
2021/06/04 10:48:08;;;;;;;10.38;9.38;;;29.20;65.60;;;;;;5045060;28;20110;-85
2021/06/04 10:50:39;;;;;;;9.65;8.43;;;29.30;62.10;;;;;;5045915;28;20096;-84
2021/06/04 10:53:14;;;;;;;11.73;9.02;;;29.30;62.90;;;;;;5043486;28;20098;-83
2021/06/04 10:56:10;;;;;;;11.98;8.95;;;29.20;64.20;;;;;;5044711;28;20043;-85
2021/06/04 10:59:15;;;;;;;16.13;10.13;;;29.50;66.20;;;;;;5020562;28;20060;-86
2021/06/04 11:01:58;;;;;;;13.63;10.30;;;29.40;62.80;;;;;;5049154;28;20029;-84
2021/06/04 11:04:42;;;;;;;15.27;12.27;;;29.40;65.30;;;;;;5050994;28;20130;-85
2021/06/04 11:07:31;;;;;;;13.03;10.83;;;29.40;61.90;;;;;;5030623;28;20064;-85
2021/06/04 11:10:10;;;;;;;16.05;12.70;;;29.50;63.50;;;;;;5029971;28;20060;-85
2021/06/04 11:12:44;;;;;;;14.93;11.52;;;29.30;60.00;;;;;;5049462;28;20095;-85
2021/06/04 11:15:18;;;;;;;12.55;10.25;;;29.20;61.40;;;;;;5060813;28;20091;-85
2021/06/04 11:18:27;;;;;;;13.70;8.30;;;29.30;64.20;;;;;;5044889;28;20036;-85
2021/06/04 11:20:56;;;;;;;8.32;7.30;;;29.20;65.80;;;;;;5020521;28;20077;-85
2021/06/04 11:23:29;;;;;;;9.30;8.02;;;29.20;65.80;;;;;;5045811;28;20479;-86
2021/06/04 11:26:11;;;;;;;11.82;7.40;;;29.40;64.50;;;;;;5044060;28;20087;-85
2021/06/04 11:29:04;;;;;;;9.23;7.18;;;29.30;61.70;;;;;;5028043;28;20037;-86
2021/06/04 11:31:52;;;;;;;6.85;5.05;;;29.30;63.10;;;;;;5041924;28;20040;-84
2021/06/04 11:34:36;;;;;;;12.57;7.18;;;29.30;62.70;;;;;;5022983;28;20041;-85
2021/06/04 11:37:03;;;;;;;9.60;8.52;;;29.40;62.50;;;;;;5042713;28;20060;-85
2021/06/04 11:39:34;;;;;;;12.50;10.40;;;29.40;62.80;;;;;;5027762;28;20041;-85
2021/06/04 11:42:05;;;;;;;14.13;11.18;;;29.40;62.50;;;;;;5044101;28;20784;-84
2021/06/04 11:44:51;;;;;;;16.75;10.73;;;29.30;58.30;;;;;;5044154;28;20029;-83
2021/06/04 11:47:17;;;;;;;11.27;7.53;;;29.40;58.30;;;;;;5024456;28;20037;-85
2021/06/04 11:50:03;;;;;;;16.48;9.38;;;29.20;62.60;;;;;;5038904;28;20038;-85
2021/06/04 11:52:34;;;;;;;14.18;11.07;;;29.30;65.20;;;;;;5027152;28;20108;-85
2021/06/04 11:55:22;;;;;;;19.48;16.08;;;29.40;63.70;;;;;;5040576;28;20197;-85
2021/06/04 11:57:57;;;;;;;21.80;16.80;;;29.20;62.30;;;;;;5040767;28;20040;-83
2021/06/04 12:00:28;;;;;;;27.05;17.00;;;28.90;65.50;;;;;;5044432;28;20112;-86
2021/06/04 12:03:08;;;;;;;19.27;14.50;;;28.60;66.70;;;;;;5041307;28;20053;-87
2021/06/04 12:05:49;;;;;;;18.98;15.70;;;28.50;69.20;;;;;;5028149;28;20036;-86
2021/06/04 12:08:21;;;;;;;19.02;17.23;;;28.30;68.70;;;;;;5030023;28;20048;-86
2021/06/04 12:10:49;;;;;;;26.77;17.50;;;28.10;69.50;;;;;;5025925;28;20799;-87
2021/06/04 12:13:40;;;;;;;17.83;16.00;;;28.00;69.70;;;;;;5026257;28;20929;-85
2021/06/04 12:16:25;;;;;;;19.00;17.05;;;28.10;71.90;;;;;;5045593;28;20063;-86
2021/06/04 12:18:58;;;;;;;19.33;16.20;;;27.90;68.30;;;;;;5031562;28;20119;-86
2021/06/04 12:51:29;;;;;;;;;;;28.60;68.00;;;;;;5032162;28;20478;-86
2021/06/04 12:55:26;;;;;;;18.48;13.32;;;28.80;68.70;;;;;;4978817;28;21007;-85
2021/06/04 12:59:28;;;;;;;17.27;12.73;;;28.90;68.90;;;;;;4946959;28;20481;-85
2021/06/04 13:02:54;;;;;;;14.65;12.82;;;28.90;66.90;;;;;;4912674;29;20744;-83
2021/06/04 13:06:06;;;;;;;12.97;11.77;;;28.80;66.10;;;;;;4908403;29;20096;-85
2021/06/04 13:23:38;;;;;;;17.60;13.82;;;28.60;63.00;;;;;;4896939;28;20200;-84
2021/06/04 13:26:13;;;;;;;15.90;14.40;;;28.70;66.70;;;;;;4944907;28;20054;-83
2021/06/04 13:33:12;;;;;;;16.52;10.32;;;28.70;66.00;;;;;;5047906;28;20075;-85
2021/06/04 13:40:51;;;;;;;11.27;9.60;;;28.70;64.70;;;;;;5039690;28;20031;-87
2021/06/04 13:56:06;;;;;;;18.77;14.98;;;28.70;64.10;;;;;;4885497;29;20052;-87
2021/06/04 14:26:23;;;;;;;13.50;9.82;;;28.40;62.50;;;;;;4778572;29;20563;-85
2021/06/04 14:37:38;;;;;;;11.27;7.13;;;28.60;61.30;;;;;;4895696;29;20120;-87
2021/06/04 14:41:29;;;;;;;7.78;6.97;;;28.80;65.50;;;;;;4853959;29;20048;-84
2021/06/04 14:52:18;;;;;;;9.45;6.05;;;28.90;62.10;;;;;;4930667;29;20043;-84
2021/06/04 14:55:50;;;;;;;8.00;6.15;;;28.70;60.30;;;;;;4854840;29;20049;-84
2021/06/04 14:59:16;;;;;;;6.05;4.38;;;28.90;61.90;;;;;;4899740;29;20068;-85
2021/06/04 15:01:44;;;;;;;9.13;4.57;;;29.00;62.70;;;;;;4948997;28;20041;-83
2021/06/04 15:04:57;;;;;;;5.88;5.38;;;29.00;63.50;;;;;;5023627;28;20045;-83
2021/06/04 15:07:57;;;;;;;10.48;5.60;;;28.90;58.70;;;;;;5058844;28;20064;-85
2021/06/04 15:10:24;;;;;;;9.02;5.10;;;28.80;57.70;;;;;;5056957;28;20041;-84
2021/06/04 15:12:51;;;;;;;8.82;5.07;;;28.80;58.20;;;;;;5058363;28;20036;-84
2021/06/04 15:15:20;;;;;;;9.70;5.13;;;28.80;59.50;;;;;;5056340;28;20045;-85
2021/06/04 15:17:51;;;;;;;10.40;7.20;;;28.80;60.10;;;;;;5051329;28;20041;-84
2021/06/04 15:20:19;;;;;;;9.05;7.13;;;28.70;61.60;;;;;;5048445;28;20041;-84
2021/06/04 15:22:45;;;;;;;11.68;8.20;;;28.70;64.60;;;;;;5028462;28;20080;-84
2021/06/04 15:25:34;;;;;;;11.77;7.05;;;28.70;64.20;;;;;;5038258;28;20120;-86
2021/06/04 15:35:33;;;;;;;9.77;7.35;;;28.50;64.60;;;;;;4968804;28;20065;-85
2021/06/04 15:38:08;;;;;;;9.95;6.35;;;28.40;63.80;;;;;;5044888;28;20033;-84
2021/06/04 15:40:50;;;;;;;10.85;7.15;;;28.40;64.00;;;;;;5029397;28;20025;-82
2021/06/04 15:44:08;;;;;;;9.23;6.60;;;28.40;63.80;;;;;;5026072;28;21491;-85
2021/06/04 15:49:43;;;;;;;9.63;8.23;;;28.20;61.60;;;;;;5009632;28;20129;-85
2021/06/04 15:52:18;;;;;;;8.15;6.32;;;27.90;60.30;;;;;;5030805;28;20112;-86
2021/06/04 15:54:51;;;;;;;7.43;6.68;;;28.00;61.80;;;;;;5029491;28;20059;-85
2021/06/04 15:57:18;;;;;;;9.35;7.30;;;27.90;64.40;;;;;;5026758;28;20048;-85
2021/06/04 15:59:45;;;;;;;9.65;7.78;;;27.70;67.50;;;;;;5050237;28;20036;-87
2021/06/04 16:02:17;;;;;;;10.35;7.25;;;27.80;68.10;;;;;;5052993;28;20103;-82
2021/06/04 16:04:44;;;;;;;8.80;7.97;;;27.80;69.30;;;;;;5041390;28;20033;-84
2021/06/04 16:07:10;;;;;;;9.43;7.85;;;27.70;68.20;;;;;;5030391;28;20117;-85
2021/06/04 16:09:36;;;;;;;10.95;7.40;;;27.80;67.00;;;;;;5048910;28;20052;-85
2021/06/04 16:12:02;;;;;;;9.35;8.15;;;27.60;67.60;;;;;;5049280;28;20041;-86
2021/06/04 16:14:29;;;;;;;9.43;7.28;;;27.50;67.50;;;;;;5054534;28;20037;-86
2021/06/04 16:16:56;;;;;;;12.77;7.47;;;27.40;68.00;;;;;;5046384;28;20037;-84
2021/06/04 16:19:21;;;;;;;12.88;8.98;;;27.40;69.40;;;;;;5047462;28;20069;-85
2021/06/04 16:22:17;;;;;;;13.40;8.38;;;27.30;70.00;;;;;;5046460;28;20072;-84
2021/06/04 16:24:50;;;;;;;10.52;9.10;;;27.30;70.60;;;;;;5050588;28;20075;-85
2021/06/04 16:27:20;;;;;;;15.52;12.65;;;27.10;69.20;;;;;;5031495;28;20044;-86
2021/06/04 16:29:53;;;;;;;19.08;13.73;;;27.00;73.60;;;;;;5028407;28;20527;-84
2021/06/04 16:32:27;;;;;;;18.27;16.30;;;27.00;76.30;;;;;;5027757;28;20052;-84